Airfield :
LOGIN :

Register | Disclaimer

   EN    FR    IT 

 










Legend :    VFR   Marginal VFR   IFR   Intensive IFR   Very Intensive IFR
Visi :
Ceiling :
>= 8 km
>= 3000ft
5 to 8 km
1000 to 3000 ft
1500m to 5 km
500 to 1000 ft
800 to 1500m
200 to 500 ft
< 800m
< 200 ft
Symbols :   Thunderstorms  Fog  Heavy snow  Heavy precipitations  Wind > 20 kt
SIGMETs :     Misc.  Thunderstorms  Icing  Turbulence  Mountain Waves  Volcanic Ashes






- Airport Elevation : 235 ft
- IATA code : BZG


EPBY - Bydgoszcz

CURRENT METAR :
  • 270430Z 27012KT 9999 -SHSN SCT012CB BKN028 01/M01 Q0998

EXPIRED METARs :
  • 270400Z 26012KT 9999 -SHSN FEW020CB SCT049 01/M01 Q0998
  • 270330Z 26010KT CAVOK 01/M01 Q0997
  • 270300Z 25010KT 9999 FEW012 01/M01 Q0997
  • 270230Z 27012KT 9999 BKN012 02/M01 Q0997
  • 270200Z 28013KT 9999 FEW013 SCT016 BKN019 02/M01 Q0997

TAF TAF EPBY
Valid from the 27 at 00:00 until the 28 at 00:00 UTC


262330Z 2700/2724 26012KT CAVOK
PROB30
TEMPO 2700/2712 3000 SHRASN BKN005 BKN012CB



MET'MAP, your aeronautical weather chart ! - Copyright ORBIFLY December 2007 - Disclaimer

ORBIFLY MET'MAP TEAM :

Programming & Development : Alexandra Zaïnal
Concept & original design : Baudouin d'Aumeries
Assistance for programming : Marc-Olivier Méhu
Technical & hardware support : Manuel Goepfert

Contact : metmap@orbifly.com




SOURCES & CREDITS :

   NOAA